sensor_id;sensor_type;location;lat;lon;timestamp;pressure;altitude;pressure_sealevel;temperature;humidity
23433;BME280;41331;45.412;10.992;2022-07-18T00:00:10;101444.72;;;27.90;44.63
23433;BME280;41331;45.412;10.992;2022-07-18T00:02:38;101445.38;;;27.74;45.13
23433;BME280;41331;45.412;10.992;2022-07-18T00:05:07;101445.81;;;27.69;45.28
23433;BME280;41331;45.412;10.992;2022-07-18T00:07:34;101444.41;;;27.84;44.89
23433;BME280;41331;45.412;10.992;2022-07-18T00:10:02;101450.75;;;27.61;46.23
23433;BME280;41331;45.412;10.992;2022-07-18T00:12:30;101444.75;;;27.59;46.06
23433;BME280;41331;45.412;10.992;2022-07-18T00:14:58;101452.25;;;27.66;45.52
23433;BME280;41331;45.412;10.992;2022-07-18T00:17:26;101442.22;;;27.72;45.31
23433;BME280;41331;45.412;10.992;2022-07-18T00:19:53;101444.94;;;27.76;45.44
23433;BME280;41331;45.412;10.992;2022-07-18T00:22:21;101447.47;;;27.67;45.68
23433;BME280;41331;45.412;10.992;2022-07-18T00:24:48;101457.03;;;27.39;47.82
23433;BME280;41331;45.412;10.992;2022-07-18T00:27:16;101454.09;;;27.19;47.72
23433;BME280;41331;45.412;10.992;2022-07-18T00:29:43;101454.66;;;27.03;48.15
23433;BME280;41331;45.412;10.992;2022-07-18T00:32:11;101447.84;;;27.04;48.22
23433;BME280;41331;45.412;10.992;2022-07-18T00:34:38;101445.41;;;27.40;46.42
23433;BME280;41331;45.412;10.992;2022-07-18T00:37:06;101452.66;;;27.38;46.52
23433;BME280;41331;45.412;10.992;2022-07-18T00:39:34;101453.25;;;27.22;47.30
23433;BME280;41331;45.412;10.992;2022-07-18T00:42:02;101462.97;;;27.10;47.85
23433;BME280;41331;45.412;10.992;2022-07-18T00:44:29;101454.72;;;26.96;48.47
23433;BME280;41331;45.412;10.992;2022-07-18T00:46:59;101444.97;;;26.77;48.63
23433;BME280;41331;45.412;10.992;2022-07-18T00:49:28;101448.91;;;26.83;48.64
23433;BME280;41331;45.412;10.992;2022-07-18T00:51:56;101453.81;;;26.72;48.69
23433;BME280;41331;45.412;10.992;2022-07-18T00:54:24;101448.63;;;26.70;48.77
23433;BME280;41331;45.412;10.992;2022-07-18T00:56:52;101452.94;;;26.78;48.80
23433;BME280;41331;45.412;10.992;2022-07-18T00:59:20;101448.31;;;26.99;47.61
23433;BME280;41331;45.412;10.992;2022-07-18T01:01:48;101450.31;;;26.98;47.97
23433;BME280;41331;45.412;10.992;2022-07-18T01:04:22;101450.34;;;27.32;46.35
23433;BME280;41331;45.412;10.992;2022-07-18T01:06:50;101448.66;;;27.39;46.24
23433;BME280;41331;45.412;10.992;2022-07-18T01:09:18;101453.34;;;27.45;45.73
23433;BME280;41331;45.412;10.992;2022-07-18T01:11:47;101458.47;;;27.50;46.03
23433;BME280;41331;45.412;10.992;2022-07-18T01:14:15;101453.63;;;27.54;45.73
23433;BME280;41331;45.412;10.992;2022-07-18T01:16:42;101451.41;;;27.42;46.54
23433;BME280;41331;45.412;10.992;2022-07-18T01:19:10;101459.81;;;27.39;46.44
23433;BME280;41331;45.412;10.992;2022-07-18T01:21:38;101459.31;;;27.47;45.79
23433;BME280;41331;45.412;10.992;2022-07-18T01:24:06;101462.97;;;27.41;46.09
23433;BME280;41331;45.412;10.992;2022-07-18T01:26:34;101462.34;;;27.29;46.05
23433;BME280;41331;45.412;10.992;2022-07-18T01:29:01;101460.91;;;27.18;46.52
23433;BME280;41331;45.412;10.992;2022-07-18T01:31:29;101457.44;;;27.03;46.56
23433;BME280;41331;45.412;10.992;2022-07-18T01:34:01;101454.00;;;27.26;45.53
23433;BME280;41331;45.412;10.992;2022-07-18T01:36:28;101463.81;;;27.41;45.16
23433;BME280;41331;45.412;10.992;2022-07-18T01:38:56;101465.41;;;27.39;45.42
23433;BME280;41331;45.412;10.992;2022-07-18T01:41:24;101457.84;;;27.35;45.27
23433;BME280;41331;45.412;10.992;2022-07-18T01:43:52;101458.53;;;27.47;44.78
23433;BME280;41331;45.412;10.992;2022-07-18T01:46:19;101457.75;;;27.46;44.78
23433;BME280;41331;45.412;10.992;2022-07-18T01:48:47;101459.69;;;27.49;44.30
23433;BME280;41331;45.412;10.992;2022-07-18T01:51:14;101458.41;;;27.54;44.12
23433;BME280;41331;45.412;10.992;2022-07-18T01:53:42;101455.78;;;27.74;43.23
23433;BME280;41331;45.412;10.992;2022-07-18T01:56:12;101462.97;;;27.71;43.44
23433;BME280;41331;45.412;10.992;2022-07-18T01:58:39;101462.31;;;27.60;43.28
23433;BME280;41331;45.412;10.992;2022-07-18T02:01:06;101466.69;;;27.61;42.89
23433;BME280;41331;45.412;10.992;2022-07-18T02:03:34;101472.41;;;27.54;42.65
23433;BME280;41331;45.412;10.992;2022-07-18T02:06:02;101463.84;;;27.65;42.17
23433;BME280;41331;45.412;10.992;2022-07-18T02:08:29;101460.56;;;27.73;40.83
23433;BME280;41331;45.412;10.992;2022-07-18T02:11:00;101454.22;;;27.69;40.48
23433;BME280;41331;45.412;10.992;2022-07-18T02:13:27;101461.38;;;27.70;40.62
23433;BME280;41331;45.412;10.992;2022-07-18T02:15:55;101452.13;;;27.77;39.81
23433;BME280;41331;45.412;10.992;2022-07-18T02:18:23;101450.25;;;27.67;39.16
23433;BME280;41331;45.412;10.992;2022-07-18T02:20:50;101461.94;;;27.88;39.04
23433;BME280;41331;45.412;10.992;2022-07-18T02:23:17;101463.53;;;27.90;38.78
23433;BME280;41331;45.412;10.992;2022-07-18T02:25:45;101458.56;;;27.70;38.97
23433;BME280;41331;45.412;10.992;2022-07-18T02:28:12;101460.53;;;27.77;38.67
23433;BME280;41331;45.412;10.992;2022-07-18T02:30:40;101450.53;;;27.76;38.69
23433;BME280;41331;45.412;10.992;2022-07-18T02:33:07;101455.59;;;27.84;37.92
23433;BME280;41331;45.412;10.992;2022-07-18T02:35:37;101454.94;;;27.77;38.28
23433;BME280;41331;45.412;10.992;2022-07-18T02:38:08;101447.81;;;27.69;38.60
23433;BME280;41331;45.412;10.992;2022-07-18T02:40:35;101448.28;;;27.63;38.27
23433;BME280;41331;45.412;10.992;2022-07-18T02:43:03;101449.19;;;27.57;38.89
23433;BME280;41331;45.412;10.992;2022-07-18T02:45:31;101469.59;;;27.54;39.58
23433;BME280;41331;45.412;10.992;2022-07-18T02:47:58;101451.59;;;27.55;39.55
23433;BME280;41331;45.412;10.992;2022-07-18T02:50:26;101462.78;;;27.55;39.30
23433;BME280;41331;45.412;10.992;2022-07-18T02:52:54;101454.59;;;27.41;40.58
23433;BME280;41331;45.412;10.992;2022-07-18T02:55:23;101457.34;;;27.44;40.63
23433;BME280;41331;45.412;10.992;2022-07-18T02:57:51;101460.63;;;27.39;40.80
23433;BME280;41331;45.412;10.992;2022-07-18T03:00:18;101462.56;;;27.12;42.59
23433;BME280;41331;45.412;10.992;2022-07-18T03:02:46;101446.81;;;27.25;40.95
23433;BME280;41331;45.412;10.992;2022-07-18T03:05:13;101461.84;;;27.38;40.42
23433;BME280;41331;45.412;10.992;2022-07-18T03:07:41;101451.41;;;27.42;40.61
23433;BME280;41331;45.412;10.992;2022-07-18T03:10:08;101454.66;;;27.37;40.67
23433;BME280;41331;45.412;10.992;2022-07-18T03:12:36;101463.97;;;27.27;41.29
23433;BME280;41331;45.412;10.992;2022-07-18T03:15:04;101456.91;;;27.15;41.22
23433;BME280;41331;45.412;10.992;2022-07-18T03:17:31;101464.84;;;27.20;41.36
23433;BME280;41331;45.412;10.992;2022-07-18T03:19:59;101461.25;;;27.20;42.27
23433;BME280;41331;45.412;10.992;2022-07-18T03:22:26;101455.09;;;27.01;43.47
23433;BME280;41331;45.412;10.992;2022-07-18T03:24:54;101464.94;;;27.13;42.63
23433;BME280;41331;45.412;10.992;2022-07-18T03:27:21;101463.25;;;27.19;41.75
23433;BME280;41331;45.412;10.992;2022-07-18T03:29:49;101457.31;;;27.17;41.59
23433;BME280;41331;45.412;10.992;2022-07-18T03:32:16;101465.25;;;27.19;41.92
23433;BME280;41331;45.412;10.992;2022-07-18T03:34:46;101457.63;;;27.23;42.07
23433;BME280;41331;45.412;10.992;2022-07-18T03:37:13;101472.09;;;27.14;42.00
23433;BME280;41331;45.412;10.992;2022-07-18T03:39:41;101460.44;;;27.23;41.77
23433;BME280;41331;45.412;10.992;2022-07-18T03:42:08;101465.09;;;26.95;42.20
23433;BME280;41331;45.412;10.992;2022-07-18T03:44:36;101457.22;;;27.24;41.50
23433;BME280;41331;45.412;10.992;2022-07-18T03:47:03;101450.69;;;27.34;40.87
23433;BME280;41331;45.412;10.992;2022-07-18T03:49:31;101454.38;;;27.28;41.91
23433;BME280;41331;45.412;10.992;2022-07-18T03:51:58;101441.84;;;27.09;41.71
23433;BME280;41331;45.412;10.992;2022-07-18T03:54:26;101453.88;;;27.02;42.20
23433;BME280;41331;45.412;10.992;2022-07-18T03:56:53;101444.16;;;27.14;42.07
23433;BME280;41331;45.412;10.992;2022-07-18T03:59:21;101449.16;;;27.30;41.72
23433;BME280;41331;45.412;10.992;2022-07-18T04:01:48;101447.44;;;27.40;41.58
23433;BME280;41331;45.412;10.992;2022-07-18T04:04:16;101458.59;;;27.40;41.66
23433;BME280;41331;45.412;10.992;2022-07-18T04:06:44;101460.00;;;27.24;42.57
23433;BME280;41331;45.412;10.992;2022-07-18T04:09:13;101460.03;;;27.21;42.41
23433;BME280;41331;45.412;10.992;2022-07-18T04:11:40;101446.28;;;27.03;43.01
23433;BME280;41331;45.412;10.992;2022-07-18T04:14:08;101457.88;;;27.01;43.72
23433;BME280;41331;45.412;10.992;2022-07-18T04:16:35;101457.88;;;27.01;44.57
23433;BME280;41331;45.412;10.992;2022-07-18T04:19:03;101457.59;;;26.89;45.37
23433;BME280;41331;45.412;10.992;2022-07-18T04:21:30;101454.22;;;27.04;43.82
23433;BME280;41331;45.412;10.992;2022-07-18T04:23:58;101461.41;;;27.05;44.22
23433;BME280;41331;45.412;10.992;2022-07-18T04:26:25;101459.25;;;27.20;43.19
23433;BME280;41331;45.412;10.992;2022-07-18T04:28:53;101462.59;;;27.04;43.94
23433;BME280;41331;45.412;10.992;2022-07-18T04:31:20;101459.81;;;27.08;43.23
23433;BME280;41331;45.412;10.992;2022-07-18T04:33:49;101468.88;;;27.16;42.77
23433;BME280;41331;45.412;10.992;2022-07-18T04:36:16;101457.78;;;27.12;43.41
23433;BME280;41331;45.412;10.992;2022-07-18T04:38:45;101473.63;;;27.22;42.94
23433;BME280;41331;45.412;10.992;2022-07-18T04:41:13;101477.06;;;27.33;42.43
23433;BME280;41331;45.412;10.992;2022-07-18T04:43:40;101479.34;;;27.12;43.25
23433;BME280;41331;45.412;10.992;2022-07-18T04:46:08;101479.00;;;27.02;44.23
23433;BME280;41331;45.412;10.992;2022-07-18T04:48:35;101487.44;;;26.95;43.66
23433;BME280;41331;45.412;10.992;2022-07-18T04:51:04;101480.72;;;26.93;44.04
23433;BME280;41331;45.412;10.992;2022-07-18T04:53:31;101474.56;;;27.05;43.29
23433;BME280;41331;45.412;10.992;2022-07-18T04:55:59;101477.19;;;27.23;42.58
23433;BME280;41331;45.412;10.992;2022-07-18T04:58:26;101479.91;;;27.30;42.46
23433;BME280;41331;45.412;10.992;2022-07-18T05:00:54;101485.94;;;27.25;42.46
23433;BME280;41331;45.412;10.992;2022-07-18T05:03:23;101481.56;;;27.24;42.30
23433;BME280;41331;45.412;10.992;2022-07-18T05:05:51;101484.72;;;27.26;43.02
23433;BME280;41331;45.412;10.992;2022-07-18T05:08:20;101487.53;;;27.26;42.80
23433;BME280;41331;45.412;10.992;2022-07-18T05:10:48;101482.56;;;27.41;41.54
23433;BME280;41331;45.412;10.992;2022-07-18T05:13:15;101487.44;;;27.33;43.03
23433;BME280;41331;45.412;10.992;2022-07-18T05:15:43;101484.94;;;27.42;42.02
23433;BME280;41331;45.412;10.992;2022-07-18T05:18:11;101486.06;;;27.48;41.75
23433;BME280;41331;45.412;10.992;2022-07-18T05:20:38;101490.38;;;27.22;43.73
23433;BME280;41331;45.412;10.992;2022-07-18T05:23:13;101472.53;;;27.13;43.51
23433;BME280;41331;45.412;10.992;2022-07-18T05:25:41;101482.19;;;27.39;41.59
23433;BME280;41331;45.412;10.992;2022-07-18T05:28:08;101479.09;;;27.29;41.99
23433;BME280;41331;45.412;10.992;2022-07-18T05:30:35;101470.22;;;27.38;41.30
23433;BME280;41331;45.412;10.992;2022-07-18T05:33:03;101473.09;;;27.61;40.62
23433;BME280;41331;45.412;10.992;2022-07-18T05:35:31;101478.63;;;27.65;40.39
23433;BME280;41331;45.412;10.992;2022-07-18T05:37:58;101493.53;;;27.55;39.90
23433;BME280;41331;45.412;10.992;2022-07-18T05:40:26;101485.16;;;27.55;40.20
23433;BME280;41331;45.412;10.992;2022-07-18T05:42:54;101478.31;;;27.59;40.05
23433;BME280;41331;45.412;10.992;2022-07-18T05:45:23;101478.50;;;27.45;40.40
23433;BME280;41331;45.412;10.992;2022-07-18T05:47:52;101490.00;;;27.51;40.50
23433;BME280;41331;45.412;10.992;2022-07-18T05:50:21;101492.69;;;27.61;40.47
23433;BME280;41331;45.412;10.992;2022-07-18T05:52:49;101488.09;;;27.44;40.37
23433;BME280;41331;45.412;10.992;2022-07-18T05:55:16;101494.34;;;27.55;40.65
23433;BME280;41331;45.412;10.992;2022-07-18T05:57:44;101494.13;;;27.43;40.38
23433;BME280;41331;45.412;10.992;2022-07-18T06:00:13;101494.00;;;27.50;40.55
23433;BME280;41331;45.412;10.992;2022-07-18T06:02:41;101499.53;;;27.57;40.53
23433;BME280;41331;45.412;10.992;2022-07-18T06:05:10;101486.22;;;27.65;40.50
23433;BME280;41331;45.412;10.992;2022-07-18T06:07:54;101494.63;;;27.65;40.24
23433;BME280;41331;45.412;10.992;2022-07-18T06:10:24;101499.56;;;27.53;40.17
23433;BME280;41331;45.412;10.992;2022-07-18T06:12:52;101502.38;;;27.53;40.36
23433;BME280;41331;45.412;10.992;2022-07-18T06:15:20;101491.00;;;27.68;40.23
23433;BME280;41331;45.412;10.992;2022-07-18T06:17:48;101499.00;;;27.66;39.98
23433;BME280;41331;45.412;10.992;2022-07-18T06:20:16;101500.78;;;27.83;40.14
23433;BME280;41331;45.412;10.992;2022-07-18T06:22:44;101494.44;;;27.79;40.05
23433;BME280;41331;45.412;10.992;2022-07-18T06:25:11;101496.31;;;27.89;39.67
23433;BME280;41331;45.412;10.992;2022-07-18T06:27:39;101498.66;;;28.18;38.95
23433;BME280;41331;45.412;10.992;2022-07-18T06:30:07;101492.53;;;27.99;39.31
23433;BME280;41331;45.412;10.992;2022-07-18T06:32:37;101500.69;;;27.90;39.53
23433;BME280;41331;45.412;10.992;2022-07-18T06:35:06;101506.91;;;28.01;39.05
23433;BME280;41331;45.412;10.992;2022-07-18T06:37:34;101503.94;;;27.85;39.05
23433;BME280;41331;45.412;10.992;2022-07-18T06:40:02;101505.31;;;28.00;38.83
23433;BME280;41331;45.412;10.992;2022-07-18T06:42:30;101505.72;;;28.02;38.89
23433;BME280;41331;45.412;10.992;2022-07-18T06:44:58;101502.72;;;27.86;39.05
23433;BME280;41331;45.412;10.992;2022-07-18T06:47:25;101511.34;;;27.99;38.63
23433;BME280;41331;45.412;10.992;2022-07-18T06:49:53;101511.22;;;28.06;38.91
23433;BME280;41331;45.412;10.992;2022-07-18T06:52:22;101511.22;;;28.33;37.44
23433;BME280;41331;45.412;10.992;2022-07-18T06:54:49;101519.38;;;27.97;37.79
23433;BME280;41331;45.412;10.992;2022-07-18T06:57:16;101522.50;;;28.02;37.95
23433;BME280;41331;45.412;10.992;2022-07-18T06:59:46;101520.16;;;27.97;37.99
23433;BME280;41331;45.412;10.992;2022-07-18T07:02:18;101513.75;;;28.24;37.16
23433;BME280;41331;45.412;10.992;2022-07-18T07:04:46;101530.00;;;28.59;37.05
23433;BME280;41331;45.412;10.992;2022-07-18T07:07:13;101527.69;;;28.54;36.89
23433;BME280;41331;45.412;10.992;2022-07-18T07:09:41;101530.75;;;28.36;35.69
23433;BME280;41331;45.412;10.992;2022-07-18T07:12:08;101530.09;;;28.76;35.68
23433;BME280;41331;45.412;10.992;2022-07-18T07:14:40;101526.34;;;28.62;35.29
23433;BME280;41331;45.412;10.992;2022-07-18T07:17:07;101528.47;;;28.55;36.14
23433;BME280;41331;45.412;10.992;2022-07-18T07:19:35;101530.13;;;28.52;35.80
23433;BME280;41331;45.412;10.992;2022-07-18T07:22:02;101534.84;;;28.55;35.74
23433;BME280;41331;45.412;10.992;2022-07-18T07:24:30;101535.28;;;29.01;36.01
23433;BME280;41331;45.412;10.992;2022-07-18T07:26:57;101529.59;;;29.04;35.55
23433;BME280;41331;45.412;10.992;2022-07-18T07:29:25;101535.50;;;29.30;35.82
23433;BME280;41331;45.412;10.992;2022-07-18T07:31:52;101542.19;;;29.16;36.04
23433;BME280;41331;45.412;10.992;2022-07-18T07:34:20;101531.84;;;29.13;36.04
23433;BME280;41331;45.412;10.992;2022-07-18T07:36:47;101539.72;;;28.75;35.81
23433;BME280;41331;45.412;10.992;2022-07-18T07:39:15;101534.06;;;28.55;35.66
23433;BME280;41331;45.412;10.992;2022-07-18T07:41:42;101532.75;;;29.06;34.82
23433;BME280;41331;45.412;10.992;2022-07-18T07:44:10;101532.34;;;29.08;34.76
23433;BME280;41331;45.412;10.992;2022-07-18T07:46:37;101527.88;;;29.30;34.69
23433;BME280;41331;45.412;10.992;2022-07-18T07:49:05;101536.09;;;29.61;34.29
23433;BME280;41331;45.412;10.992;2022-07-18T07:51:32;101518.03;;;29.62;34.26
23433;BME280;41331;45.412;10.992;2022-07-18T07:54:04;101525.81;;;29.90;33.87
23433;BME280;41331;45.412;10.992;2022-07-18T07:56:32;101525.66;;;29.61;34.27
23433;BME280;41331;45.412;10.992;2022-07-18T07:59:00;101523.13;;;30.03;34.23
23433;BME280;41331;45.412;10.992;2022-07-18T08:01:28;101528.22;;;30.08;34.27
23433;BME280;41331;45.412;10.992;2022-07-18T08:03:56;101532.47;;;30.16;34.27
23433;BME280;41331;45.412;10.992;2022-07-18T08:06:23;101523.56;;;30.02;33.92
23433;BME280;41331;45.412;10.992;2022-07-18T08:08:55;101527.81;;;29.74;34.44
23433;BME280;41331;45.412;10.992;2022-07-18T08:11:25;101528.44;;;29.81;34.10
23433;BME280;41331;45.412;10.992;2022-07-18T08:13:53;101525.53;;;30.21;33.47
23433;BME280;41331;45.412;10.992;2022-07-18T08:16:22;101530.09;;;30.15;33.43
23433;BME280;41331;45.412;10.992;2022-07-18T08:18:49;101527.63;;;30.50;32.71
23433;BME280;41331;45.412;10.992;2022-07-18T08:21:17;101521.91;;;30.86;32.57
23433;BME280;41331;45.412;10.992;2022-07-18T08:23:45;101527.19;;;30.51;32.62
23433;BME280;41331;45.412;10.992;2022-07-18T08:26:14;101534.16;;;29.94;33.67
23433;BME280;41331;45.412;10.992;2022-07-18T08:28:42;101531.16;;;30.37;33.59
23433;BME280;41331;45.412;10.992;2022-07-18T08:31:10;101531.16;;;30.54;33.80
23433;BME280;41331;45.412;10.992;2022-07-18T08:33:38;101522.78;;;30.66;33.08
23433;BME280;41331;45.412;10.992;2022-07-18T08:36:10;101529.09;;;30.87;32.20
23433;BME280;41331;45.412;10.992;2022-07-18T08:38:37;101517.28;;;31.08;32.02
23433;BME280;41331;45.412;10.992;2022-07-18T08:41:05;101529.31;;;31.09;31.37
23433;BME280;41331;45.412;10.992;2022-07-18T08:43:32;101528.44;;;30.83;32.05
23433;BME280;41331;45.412;10.992;2022-07-18T08:46:05;101517.69;;;30.94;32.19
23433;BME280;41331;45.412;10.992;2022-07-18T08:48:33;101525.59;;;31.28;31.17
23433;BME280;41331;45.412;10.992;2022-07-18T08:51:01;101526.66;;;31.18;31.20
23433;BME280;41331;45.412;10.992;2022-07-18T08:53:29;101524.94;;;31.08;31.65
23433;BME280;41331;45.412;10.992;2022-07-18T08:55:57;101527.69;;;30.95;31.68
23433;BME280;41331;45.412;10.992;2022-07-18T08:58:24;101526.91;;;30.62;31.80
23433;BME280;41331;45.412;10.992;2022-07-18T09:01:11;101540.13;;;30.49;32.32
23433;BME280;41331;45.412;10.992;2022-07-18T09:03:39;101532.91;;;30.31;32.47
23433;BME280;41331;45.412;10.992;2022-07-18T09:08:37;101522.41;;;30.97;31.97
23433;BME280;41331;45.412;10.992;2022-07-18T09:11:10;101524.88;;;31.24;31.78
23433;BME280;41331;45.412;10.992;2022-07-18T09:13:58;101531.03;;;31.19;32.21
23433;BME280;41331;45.412;10.992;2022-07-18T09:16:26;101521.31;;;31.07;31.82
23433;BME280;41331;45.412;10.992;2022-07-18T09:18:54;101523.16;;;31.43;32.13
23433;BME280;41331;45.412;10.992;2022-07-18T09:21:23;101523.63;;;31.80;32.38
23433;BME280;41331;45.412;10.992;2022-07-18T09:23:52;101520.97;;;32.02;31.64
23433;BME280;41331;45.412;10.992;2022-07-18T09:29:02;101523.28;;;30.94;33.26
23433;BME280;41331;45.412;10.992;2022-07-18T09:31:51;101524.69;;;31.31;33.58
23433;BME280;41331;45.412;10.992;2022-07-18T09:34:37;101523.84;;;31.72;31.79
23433;BME280;41331;45.412;10.992;2022-07-18T09:37:11;101525.44;;;31.74;32.68
23433;BME280;41331;45.412;10.992;2022-07-18T09:39:39;101521.63;;;32.06;31.87
23433;BME280;41331;45.412;10.992;2022-07-18T09:42:17;101527.50;;;32.11;32.61
23433;BME280;41331;45.412;10.992;2022-07-18T09:44:59;101530.53;;;32.17;31.66
23433;BME280;41331;45.412;10.992;2022-07-18T09:47:27;101522.09;;;32.04;31.73
23433;BME280;41331;45.412;10.992;2022-07-18T09:49:54;101525.03;;;32.13;31.27
23433;BME280;41331;45.412;10.992;2022-07-18T09:52:22;101518.56;;;31.75;32.90
23433;BME280;41331;45.412;10.992;2022-07-18T09:54:50;101522.06;;;32.42;32.66
23433;BME280;41331;45.412;10.992;2022-07-18T09:57:26;101523.31;;;32.29;32.36
23433;BME280;41331;45.412;10.992;2022-07-18T09:59:54;101504.16;;;32.49;32.51
23433;BME280;41331;45.412;10.992;2022-07-18T10:02:25;101516.22;;;32.37;31.82
23433;BME280;41331;45.412;10.992;2022-07-18T10:04:54;101519.59;;;32.06;32.08
23433;BME280;41331;45.412;10.992;2022-07-18T10:07:21;101512.66;;;31.98;32.28
23433;BME280;41331;45.412;10.992;2022-07-18T10:09:52;101505.59;;;32.28;32.63
23433;BME280;41331;45.412;10.992;2022-07-18T10:12:19;101507.06;;;32.45;32.08
23433;BME280;41331;45.412;10.992;2022-07-18T10:14:47;101517.38;;;32.74;31.26
23433;BME280;41331;45.412;10.992;2022-07-18T10:17:14;101514.94;;;32.85;30.93
23433;BME280;41331;45.412;10.992;2022-07-18T10:19:42;101508.06;;;32.86;30.54
23433;BME280;41331;45.412;10.992;2022-07-18T10:22:11;101509.56;;;32.78;31.83
23433;BME280;41331;45.412;10.992;2022-07-18T10:24:40;101502.22;;;32.46;31.78
23433;BME280;41331;45.412;10.992;2022-07-18T10:27:16;101510.19;;;32.60;32.42
23433;BME280;41331;45.412;10.992;2022-07-18T10:33:48;101500.16;;;32.59;31.54
23433;BME280;41331;45.412;10.992;2022-07-18T10:36:19;101490.84;;;32.84;32.34
23433;BME280;41331;45.412;10.992;2022-07-18T10:39:13;101497.75;;;33.05;31.85
23433;BME280;41331;45.412;10.992;2022-07-18T11:00:32;101483.66;;;33.58;31.39
23433;BME280;41331;45.412;10.992;2022-07-18T11:03:09;101479.44;;;33.10;32.72
23433;BME280;41331;45.412;10.992;2022-07-18T11:05:49;101476.84;;;32.81;32.23
23433;BME280;41331;45.412;10.992;2022-07-18T11:08:18;101468.88;;;33.45;33.40
23433;BME280;41331;45.412;10.992;2022-07-18T11:13:22;101475.25;;;33.14;32.69
23433;BME280;41331;45.412;10.992;2022-07-18T11:23:59;101469.25;;;32.68;33.61
23433;BME280;41331;45.412;10.992;2022-07-18T11:26:27;101468.53;;;33.43;33.08
23433;BME280;41331;45.412;10.992;2022-07-18T11:29:00;101465.88;;;33.80;33.22
23433;BME280;41331;45.412;10.992;2022-07-18T11:31:29;101465.88;;;33.80;32.73
23433;BME280;41331;45.412;10.992;2022-07-18T11:34:00;101452.78;;;33.33;33.00
23433;BME280;41331;45.412;10.992;2022-07-18T11:36:29;101461.56;;;33.57;32.49
23433;BME280;41331;45.412;10.992;2022-07-18T11:39:00;101452.00;;;33.32;32.35
23433;BME280;41331;45.412;10.992;2022-07-18T11:41:27;101453.44;;;33.68;32.04
23433;BME280;41331;45.412;10.992;2022-07-18T11:43:56;101452.31;;;33.56;31.83
23433;BME280;41331;45.412;10.992;2022-07-18T11:46:25;101444.63;;;33.97;31.36
23433;BME280;41331;45.412;10.992;2022-07-18T11:48:59;101440.78;;;34.40;30.92
23433;BME280;41331;45.412;10.992;2022-07-18T11:51:34;101444.16;;;33.98;30.92
23433;BME280;41331;45.412;10.992;2022-07-18T11:54:03;101435.84;;;33.95;31.01
23433;BME280;41331;45.412;10.992;2022-07-18T11:56:50;101431.84;;;33.43;32.16
23433;BME280;41331;45.412;10.992;2022-07-18T11:59:18;101426.06;;;33.87;32.53
23433;BME280;41331;45.412;10.992;2022-07-18T12:01:50;101425.69;;;34.25;30.91
23433;BME280;41331;45.412;10.992;2022-07-18T12:04:24;101421.72;;;33.95;31.13
23433;BME280;41331;45.412;10.992;2022-07-18T12:07:14;101424.41;;;34.17;31.62
23433;BME280;41331;45.412;10.992;2022-07-18T12:09:47;101411.09;;;34.82;30.71
23433;BME280;41331;45.412;10.992;2022-07-18T12:12:18;101418.44;;;34.24;30.59
23433;BME280;41331;45.412;10.992;2022-07-18T12:14:58;101412.00;;;33.96;30.97
23433;BME280;41331;45.412;10.992;2022-07-18T12:17:27;101413.25;;;34.13;30.30
23433;BME280;41331;45.412;10.992;2022-07-18T12:23:03;101407.28;;;34.02;30.67
23433;BME280;41331;45.412;10.992;2022-07-18T12:25:41;101396.81;;;34.67;30.35
23433;BME280;41331;45.412;10.992;2022-07-18T12:28:16;101401.97;;;34.22;30.28
23433;BME280;41331;45.412;10.992;2022-07-18T12:30:45;101390.06;;;34.27;30.49
23433;BME280;41331;45.412;10.992;2022-07-18T12:33:13;101388.03;;;34.46;30.36
23433;BME280;41331;45.412;10.992;2022-07-18T12:35:42;101390.25;;;34.51;30.59
23433;BME280;41331;45.412;10.992;2022-07-18T12:38:12;101394.38;;;33.92;31.36
23433;BME280;41331;45.412;10.992;2022-07-18T12:43:21;101384.88;;;34.72;30.51
23433;BME280;41331;45.412;10.992;2022-07-18T12:45:49;101383.13;;;34.38;31.10
23433;BME280;41331;45.412;10.992;2022-07-18T12:48:18;101371.22;;;34.70;30.43
23433;BME280;41331;45.412;10.992;2022-07-18T12:50:46;101374.84;;;34.34;30.65
23433;BME280;41331;45.412;10.992;2022-07-18T12:53:14;101371.69;;;34.32;31.35
23433;BME280;41331;45.412;10.992;2022-07-18T12:55:41;101360.38;;;34.41;30.84
23433;BME280;41331;45.412;10.992;2022-07-18T12:58:11;101365.88;;;34.26;31.00
23433;BME280;41331;45.412;10.992;2022-07-18T13:00:39;101359.59;;;33.95;31.36
23433;BME280;41331;45.412;10.992;2022-07-18T13:03:06;101369.50;;;34.36;31.03
23433;BME280;41331;45.412;10.992;2022-07-18T13:05:34;101358.81;;;34.22;31.71
23433;BME280;41331;45.412;10.992;2022-07-18T13:08:02;101355.84;;;34.62;30.32
23433;BME280;41331;45.412;10.992;2022-07-18T13:10:29;101355.53;;;34.05;31.19
23433;BME280;41331;45.412;10.992;2022-07-18T13:12:57;101352.88;;;34.20;30.83
23433;BME280;41331;45.412;10.992;2022-07-18T13:15:24;101348.94;;;34.08;30.82
23433;BME280;41331;45.412;10.992;2022-07-18T13:17:52;101355.22;;;33.94;31.08
23433;BME280;41331;45.412;10.992;2022-07-18T13:20:20;101356.47;;;34.02;31.10
23433;BME280;41331;45.412;10.992;2022-07-18T13:22:47;101350.97;;;34.17;30.77
23433;BME280;41331;45.412;10.992;2022-07-18T13:25:21;101349.00;;;33.68;31.60
23433;BME280;41331;45.412;10.992;2022-07-18T13:27:52;101342.28;;;33.74;31.15
23433;BME280;41331;45.412;10.992;2022-07-18T13:30:19;101343.22;;;33.81;31.04
23433;BME280;41331;45.412;10.992;2022-07-18T13:32:47;101344.69;;;34.22;30.50